createdAt,value
2022-11-22T00:00:38.315Z,19.07
2022-11-22T00:05:41.198Z,22.00
2022-11-22T00:10:44.150Z,25.77
2022-11-22T00:15:58.982Z,24.27
2022-11-22T00:21:07.065Z,22.30
2022-11-22T00:26:12.168Z,20.63
2022-11-22T00:31:16.573Z,19.47
2022-11-22T00:36:19.444Z,21.07
2022-11-22T00:41:22.745Z,21.20
2022-11-22T00:46:27.104Z,26.10
2022-11-22T00:51:30.025Z,20.10
2022-11-22T00:56:33.203Z,24.60
2022-11-22T01:01:37.560Z,23.17
2022-11-22T01:06:40.488Z,23.87
2022-11-22T01:11:44.381Z,23.93
2022-11-22T01:16:49.585Z,24.30
2022-11-22T01:21:52.786Z,23.43
2022-11-22T01:26:56.381Z,22.53
2022-11-22T01:32:00.728Z,21.57
2022-11-22T01:37:03.723Z,20.23
2022-11-22T01:42:06.685Z,23.50
2022-11-22T01:47:14.212Z,25.40
2022-11-22T01:52:20.482Z,22.97
2022-11-22T01:57:26.115Z,22.93
2022-11-22T02:02:30.374Z,21.73
2022-11-22T02:07:41.021Z,20.83
2022-11-22T02:12:44.399Z,25.27
2022-11-22T02:17:48.654Z,21.27
2022-11-22T02:22:57.271Z,20.37
2022-11-22T02:28:01.608Z,21.37
2022-11-22T02:33:04.738Z,30.27
2022-11-22T02:38:10.507Z,23.90
2022-11-22T02:43:18.009Z,21.37
2022-11-22T02:48:20.872Z,24.20
2022-11-22T02:53:23.790Z,27.80
2022-11-22T02:58:28.090Z,25.97
2022-11-22T03:03:31.685Z,21.87
2022-11-22T03:08:35.033Z,23.17
2022-11-22T03:13:39.438Z,24.10
2022-11-22T03:18:42.398Z,24.17
2022-11-22T03:23:45.267Z,21.80
2022-11-22T03:28:49.491Z,22.07
2022-11-22T03:33:52.503Z,20.53
2022-11-22T03:38:55.380Z,20.67
2022-11-22T03:43:59.746Z,21.27
2022-11-22T03:49:02.642Z,26.63
2022-11-22T03:54:05.988Z,24.90
2022-11-22T03:59:10.282Z,24.13
2022-11-22T04:04:13.318Z,25.47
2022-11-22T04:09:16.549Z,27.13
2022-11-22T04:14:38.054Z,23.47
2022-11-22T04:20:01.717Z,25.03
2022-11-22T04:25:17.078Z,26.93
2022-11-22T04:30:21.511Z,24.80
2022-11-22T04:35:24.371Z,27.30
2022-11-22T04:40:27.246Z,24.37
2022-11-22T04:45:31.549Z,24.73
2022-11-22T04:50:52.442Z,23.30
2022-11-22T04:55:55.445Z,22.90
2022-11-22T05:01:00.195Z,24.27
2022-11-22T05:06:04.267Z,23.00
2022-11-22T05:11:07.209Z,36.37
2022-11-22T05:16:13.614Z,25.50
2022-11-22T05:21:16.525Z,27.50
2022-11-22T05:26:19.548Z,30.63
2022-11-22T05:31:27.171Z,46.53
2022-11-22T05:36:32.900Z,26.57
2022-11-22T05:41:35.878Z,26.10
2022-11-22T05:46:40.149Z,30.10
2022-11-22T05:51:43.077Z,30.47
2022-11-22T05:56:45.941Z,24.00
2022-11-22T06:01:50.183Z,28.90
2022-11-22T06:06:53.099Z,33.67
2022-11-22T06:11:55.998Z,29.63
2022-11-22T06:17:00.265Z,30.40
2022-11-22T06:22:03.163Z,26.90
2022-11-22T06:27:06.000Z,28.43
2022-11-22T06:32:10.251Z,32.03
2022-11-22T06:37:15.984Z,30.40
2022-11-22T06:42:19.265Z,26.50
2022-11-22T06:47:23.542Z,36.10
2022-11-22T06:52:27.116Z,28.83
2022-11-22T06:57:29.953Z,21.57
2022-11-22T07:02:34.212Z,25.87
2022-11-22T07:07:37.142Z,27.93
2022-11-22T07:12:40.107Z,31.10
2022-11-22T07:17:44.649Z,27.83
2022-11-22T07:22:48.759Z,26.63
2022-11-22T07:27:53.414Z,26.67
2022-11-22T07:32:57.633Z,26.30
2022-11-22T07:38:00.603Z,19.63
2022-11-22T07:43:04.200Z,25.33
2022-11-22T07:48:08.728Z,28.03
2022-11-22T07:53:11.734Z,23.10
2022-11-22T07:58:14.668Z,30.37
2022-11-22T08:03:22.683Z,34.03
2022-11-22T08:08:28.574Z,23.57
2022-11-22T08:13:32.305Z,22.80
2022-11-22T08:18:37.696Z,29.03
2022-11-22T08:23:41.638Z,25.93
2022-11-22T08:28:44.900Z,22.70
2022-11-22T08:33:49.489Z,21.33
2022-11-22T08:38:52.360Z,20.93
2022-11-22T08:43:55.364Z,21.40
2022-11-22T08:48:59.632Z,22.03
2022-11-22T08:54:02.484Z,22.03
2022-11-22T08:59:05.476Z,27.20
2022-11-22T09:04:10.721Z,21.43
2022-11-22T09:14:36.786Z,20.63
2022-11-22T09:19:41.020Z,20.83
2022-11-22T09:24:43.939Z,28.50
2022-11-22T09:29:46.851Z,21.63
2022-11-22T09:34:51.125Z,25.77
2022-11-22T09:39:54.009Z,19.10
2022-11-22T09:45:16.132Z,19.63
2022-11-22T09:50:29.631Z,14.60
2022-11-22T09:55:37.715Z,16.70
2022-11-22T10:00:44.384Z,18.60
2022-11-22T10:05:53.709Z,16.70
2022-11-22T10:10:59.649Z,15.90
2022-11-22T10:16:08.522Z,16.77
2022-11-22T10:21:15.042Z,17.40
2022-11-22T10:26:25.067Z,16.03
2022-11-22T10:31:33.808Z,16.73
2022-11-22T10:36:44.873Z,13.83
2022-11-22T10:42:01.654Z,16.10
2022-11-22T10:47:15.050Z,16.50
2022-11-22T10:52:29.598Z,16.20
2022-11-22T10:57:39.735Z,14.60
2022-11-22T11:03:06.201Z,17.20
2022-11-22T11:08:42.049Z,20.30
2022-11-22T11:13:49.394Z,21.87
2022-11-22T11:18:57.080Z,17.07
2022-11-22T11:24:01.367Z,16.80
2022-11-22T11:29:38.431Z,14.60
2022-11-22T11:34:45.628Z,16.10
2022-11-22T11:39:49.938Z,15.67
2022-11-22T11:44:53.146Z,15.17
2022-11-22T11:49:56.042Z,15.43
2022-11-22T11:55:03.413Z,15.40
2022-11-22T12:00:20.281Z,15.77
2022-11-22T12:05:29.006Z,16.97
2022-11-22T12:10:45.250Z,17.33
2022-11-22T12:15:57.966Z,17.07
2022-11-22T12:21:07.462Z,19.27
2022-11-22T12:26:11.951Z,22.07
2022-11-22T12:31:25.051Z,21.50
2022-11-22T12:36:43.235Z,18.60
2022-11-22T12:41:51.061Z,23.00
2022-11-22T12:46:58.534Z,20.90
2022-11-22T12:52:10.651Z,23.97
2022-11-22T12:57:24.194Z,20.90
2022-11-22T13:02:36.236Z,23.50
2022-11-22T13:07:54.909Z,19.40
2022-11-22T13:13:01.946Z,21.70
2022-11-22T13:18:10.524Z,24.93
2022-11-22T13:23:36.070Z,21.23
2022-11-22T13:28:42.079Z,17.60
2022-11-22T13:33:54.924Z,23.73
2022-11-22T13:38:59.592Z,26.23
2022-11-22T13:44:18.877Z,19.70
2022-11-22T13:49:46.821Z,18.70
2022-11-22T13:55:28.928Z,18.30
2022-11-22T14:00:42.867Z,22.20
2022-11-22T14:05:49.910Z,16.50
2022-11-22T14:11:12.107Z,16.63
2022-11-22T14:16:30.331Z,16.43
2022-11-22T14:21:57.426Z,14.40
2022-11-22T14:27:11.160Z,16.97
2022-11-22T14:32:19.204Z,17.40
2022-11-22T14:37:46.652Z,16.37
2022-11-22T14:42:53.871Z,21.77
2022-11-22T14:48:06.496Z,15.13
2022-11-22T14:53:21.198Z,19.30
2022-11-22T14:58:29.576Z,21.03
2022-11-22T15:09:16.117Z,15.10
2022-11-22T15:09:53.325Z,21.97
2022-11-22T15:58:57.173Z,25.63
2022-11-22T16:04:00.737Z,27.60
2022-11-22T16:09:06.445Z,23.83
2022-11-22T16:14:41.228Z,22.03
2022-11-22T16:19:44.184Z,25.57
2022-11-22T16:24:48.557Z,29.20
2022-11-22T16:29:52.561Z,30.93
2022-11-22T16:35:21.720Z,23.97
2022-11-22T16:40:19.776Z,17.10
2022-11-22T16:45:23.381Z,23.03
2022-11-22T16:50:26.428Z,19.80
2022-11-22T16:55:30.704Z,19.00
2022-11-22T17:00:35.388Z,23.97
2022-11-22T17:05:38.440Z,21.03
2022-11-22T17:10:45.520Z,24.20
2022-11-22T17:15:48.996Z,20.27
2022-11-22T17:20:51.905Z,22.90
2022-11-22T17:25:56.173Z,24.43
2022-11-22T17:31:00.246Z,17.90
2022-11-22T17:36:03.130Z,16.87
2022-11-22T17:41:07.454Z,24.07
2022-11-22T17:46:10.351Z,30.10
2022-11-22T17:51:14.034Z,31.30
2022-11-22T17:56:18.361Z,18.70
2022-11-22T18:01:22.800Z,18.23
2022-11-22T18:06:26.798Z,25.20
2022-11-22T18:11:31.123Z,21.67
2022-11-22T18:16:34.024Z,17.17
2022-11-22T18:21:38.136Z,21.17
2022-11-22T18:26:42.611Z,20.40
2022-11-22T18:31:52.310Z,22.10
2022-11-22T18:37:09.630Z,23.97
2022-11-22T18:42:16.780Z,23.50
2022-11-22T18:47:19.769Z,30.50
2022-11-22T18:52:23.113Z,24.50
2022-11-22T18:57:27.666Z,28.00
2022-11-22T19:02:30.590Z,34.33
2022-11-22T19:07:33.500Z,29.10
2022-11-22T19:12:37.746Z,29.57
2022-11-22T19:17:41.032Z,28.93
2022-11-22T19:22:43.932Z,32.40
2022-11-22T19:27:49.681Z,36.90
2022-11-22T19:32:52.569Z,26.20
2022-11-22T19:37:55.531Z,29.37
2022-11-22T19:42:59.806Z,45.40
2022-11-22T19:48:02.667Z,49.03
2022-11-22T19:53:05.904Z,52.80
2022-11-22T19:58:10.186Z,43.97
2022-11-22T20:03:14.394Z,45.57
2022-11-22T20:08:17.286Z,38.33
2022-11-22T20:13:21.507Z,32.43
2022-11-22T20:18:24.418Z,31.73
2022-11-22T20:23:27.318Z,31.83
2022-11-22T20:28:31.940Z,28.80
2022-11-22T20:33:35.920Z,31.13
2022-11-22T20:38:40.522Z,21.00
2022-11-22T20:43:45.277Z,28.90
2022-11-22T20:48:49.242Z,29.67
2022-11-22T20:53:52.669Z,28.67
2022-11-22T20:58:56.944Z,25.30
2022-11-22T21:03:59.921Z,37.43
2022-11-22T21:09:03.009Z,31.60
2022-11-22T21:14:07.403Z,31.73
2022-11-22T21:19:10.710Z,30.40
2022-11-22T21:24:14.131Z,27.90
2022-11-22T21:29:18.362Z,42.60
2022-11-22T21:34:21.219Z,29.50
2022-11-22T21:39:24.101Z,31.80
2022-11-22T21:44:28.442Z,26.50
2022-11-22T21:49:31.524Z,29.77
2022-11-22T21:54:34.587Z,21.83
2022-11-22T21:59:38.842Z,20.73
2022-11-22T22:04:41.754Z,22.87
2022-11-22T22:09:44.650Z,23.70
2022-11-22T22:14:48.855Z,24.10
2022-11-22T22:19:53.271Z,28.27
2022-11-22T22:24:56.136Z,25.83
2022-11-22T22:30:00.461Z,20.47
2022-11-22T22:35:03.796Z,20.00
2022-11-22T22:40:07.713Z,26.03
2022-11-22T22:45:12.558Z,21.20
2022-11-22T22:50:16.149Z,15.17
2022-11-22T22:55:19.066Z,19.40
2022-11-22T23:00:23.524Z,16.63
2022-11-22T23:05:26.444Z,19.87
2022-11-22T23:10:29.366Z,15.10
2022-11-22T23:15:56.849Z,36.60
2022-11-22T23:20:59.834Z,15.10
2022-11-22T23:26:04.040Z,21.30
2022-11-22T23:31:10.097Z,16.00
2022-11-22T23:36:14.554Z,16.93
2022-11-22T23:41:20.054Z,18.40
2022-11-22T23:46:27.395Z,17.30
2022-11-22T23:51:31.721Z,16.33
2022-11-22T23:56:36.365Z,17.63
